sensor_id;sensor_type;location;lat;lon;timestamp;P1;durP1;ratioP1;P2;durP2;ratioP2
49392;SDS011;35268;42.642;23.308;2023-06-04T00:00:26;10.43;;;6.32;;
49392;SDS011;35268;42.642;23.308;2023-06-04T00:02:52;10.60;;;6.53;;
49392;SDS011;35268;42.642;23.308;2023-06-04T00:05:17;8.82;;;6.78;;
49392;SDS011;35268;42.642;23.308;2023-06-04T00:07:43;11.93;;;6.05;;
49392;SDS011;35268;42.642;23.308;2023-06-04T00:10:09;14.23;;;8.15;;
49392;SDS011;35268;42.642;23.308;2023-06-04T00:12:35;14.20;;;7.32;;
49392;SDS011;35268;42.642;23.308;2023-06-04T00:15:00;11.57;;;8.15;;
49392;SDS011;35268;42.642;23.308;2023-06-04T00:17:26;13.10;;;8.60;;
49392;SDS011;35268;42.642;23.308;2023-06-04T00:19:51;12.32;;;8.10;;
49392;SDS011;35268;42.642;23.308;2023-06-04T00:22:17;18.40;;;8.93;;
49392;SDS011;35268;42.642;23.308;2023-06-04T00:24:42;14.15;;;9.32;;
49392;SDS011;35268;42.642;23.308;2023-06-04T00:27:08;13.82;;;9.35;;
49392;SDS011;35268;42.642;23.308;2023-06-04T00:29:34;19.00;;;10.45;;
49392;SDS011;35268;42.642;23.308;2023-06-04T00:32:00;12.77;;;8.95;;
49392;SDS011;35268;42.642;23.308;2023-06-04T00:34:26;26.10;;;10.32;;
49392;SDS011;35268;42.642;23.308;2023-06-04T00:36:51;17.83;;;11.50;;
49392;SDS011;35268;42.642;23.308;2023-06-04T00:39:17;17.95;;;11.05;;
49392;SDS011;35268;42.642;23.308;2023-06-04T00:41:42;18.02;;;11.27;;
49392;SDS011;35268;42.642;23.308;2023-06-04T00:44:08;20.38;;;11.35;;
49392;SDS011;35268;42.642;23.308;2023-06-04T00:46:34;17.95;;;11.25;;
49392;SDS011;35268;42.642;23.308;2023-06-04T00:49:01;23.77;;;11.43;;
49392;SDS011;35268;42.642;23.308;2023-06-04T00:51:26;18.05;;;12.85;;
49392;SDS011;35268;42.642;23.308;2023-06-04T00:53:55;15.95;;;11.05;;
49392;SDS011;35268;42.642;23.308;2023-06-04T00:56:21;17.75;;;11.10;;
49392;SDS011;35268;42.642;23.308;2023-06-04T00:58:46;16.92;;;11.85;;
49392;SDS011;35268;42.642;23.308;2023-06-04T01:01:15;18.45;;;12.77;;
49392;SDS011;35268;42.642;23.308;2023-06-04T01:03:45;17.65;;;11.60;;
49392;SDS011;35268;42.642;23.308;2023-06-04T01:06:27;21.35;;;13.57;;
49392;SDS011;35268;42.642;23.308;2023-06-04T01:09:00;19.40;;;13.60;;
49392;SDS011;35268;42.642;23.308;2023-06-04T01:11:33;17.80;;;12.45;;
49392;SDS011;35268;42.642;23.308;2023-06-04T01:14:01;17.33;;;12.20;;
49392;SDS011;35268;42.642;23.308;2023-06-04T01:16:28;20.83;;;12.32;;
49392;SDS011;35268;42.642;23.308;2023-06-04T01:19:00;22.30;;;12.70;;
49392;SDS011;35268;42.642;23.308;2023-06-04T01:21:30;16.35;;;10.65;;
49392;SDS011;35268;42.642;23.308;2023-06-04T01:24:00;19.05;;;10.85;;
49392;SDS011;35268;42.642;23.308;2023-06-04T01:26:30;14.38;;;9.18;;
49392;SDS011;35268;42.642;23.308;2023-06-04T01:28:57;13.02;;;7.80;;
49392;SDS011;35268;42.642;23.308;2023-06-04T01:31:24;16.58;;;8.50;;
49392;SDS011;35268;42.642;23.308;2023-06-04T01:33:54;14.48;;;7.30;;
49392;SDS011;35268;42.642;23.308;2023-06-04T01:36:22;9.05;;;5.13;;
49392;SDS011;35268;42.642;23.308;2023-06-04T01:38:48;10.07;;;5.10;;
49392;SDS011;35268;42.642;23.308;2023-06-04T01:41:14;6.88;;;4.13;;
49392;SDS011;35268;42.642;23.308;2023-06-04T01:43:39;7.43;;;4.43;;
49392;SDS011;35268;42.642;23.308;2023-06-04T01:46:05;5.53;;;4.07;;
49392;SDS011;35268;42.642;23.308;2023-06-04T01:48:30;11.35;;;5.30;;
49392;SDS011;35268;42.642;23.308;2023-06-04T01:50:57;8.85;;;4.38;;
49392;SDS011;35268;42.642;23.308;2023-06-04T01:53:23;7.85;;;5.32;;
49392;SDS011;35268;42.642;23.308;2023-06-04T01:55:48;9.18;;;5.63;;
49392;SDS011;35268;42.642;23.308;2023-06-04T01:58:14;11.02;;;5.30;;
49392;SDS011;35268;42.642;23.308;2023-06-04T02:00:48;11.27;;;6.82;;
49392;SDS011;35268;42.642;23.308;2023-06-04T02:03:14;15.60;;;6.82;;
49392;SDS011;35268;42.642;23.308;2023-06-04T02:05:40;10.93;;;6.68;;
49392;SDS011;35268;42.642;23.308;2023-06-04T02:08:06;14.13;;;6.70;;
49392;SDS011;35268;42.642;23.308;2023-06-04T02:10:31;10.35;;;7.10;;
49392;SDS011;35268;42.642;23.308;2023-06-04T02:12:58;7.82;;;6.13;;
49392;SDS011;35268;42.642;23.308;2023-06-04T02:15:27;6.40;;;5.05;;
49392;SDS011;35268;42.642;23.308;2023-06-04T02:17:57;8.90;;;5.40;;
49392;SDS011;35268;42.642;23.308;2023-06-04T02:20:27;8.35;;;5.40;;
49392;SDS011;35268;42.642;23.308;2023-06-04T02:22:54;9.32;;;5.95;;
49392;SDS011;35268;42.642;23.308;2023-06-04T02:25:20;8.52;;;4.85;;
49392;SDS011;35268;42.642;23.308;2023-06-04T02:27:46;5.80;;;3.78;;
49392;SDS011;35268;42.642;23.308;2023-06-04T02:30:11;6.15;;;4.53;;
49392;SDS011;35268;42.642;23.308;2023-06-04T02:32:37;4.53;;;3.05;;
49392;SDS011;35268;42.642;23.308;2023-06-04T02:35:04;5.10;;;2.92;;
49392;SDS011;35268;42.642;23.308;2023-06-04T02:37:30;5.18;;;2.85;;
49392;SDS011;35268;42.642;23.308;2023-06-04T02:40:01;8.25;;;2.88;;
49392;SDS011;35268;42.642;23.308;2023-06-04T02:42:26;10.23;;;3.80;;
49392;SDS011;35268;42.642;23.308;2023-06-04T02:44:52;4.63;;;2.25;;
49392;SDS011;35268;42.642;23.308;2023-06-04T02:47:17;4.75;;;2.60;;
49392;SDS011;35268;42.642;23.308;2023-06-04T02:49:44;5.25;;;2.45;;
49392;SDS011;35268;42.642;23.308;2023-06-04T02:52:11;3.78;;;2.40;;
49392;SDS011;35268;42.642;23.308;2023-06-04T02:54:37;5.28;;;2.45;;
49392;SDS011;35268;42.642;23.308;2023-06-04T02:57:02;7.30;;;2.55;;
49392;SDS011;35268;42.642;23.308;2023-06-04T02:59:28;6.85;;;2.67;;
49392;SDS011;35268;42.642;23.308;2023-06-04T03:01:53;3.83;;;2.42;;
49392;SDS011;35268;42.642;23.308;2023-06-04T03:04:19;4.35;;;2.75;;
49392;SDS011;35268;42.642;23.308;2023-06-04T03:06:45;5.10;;;2.65;;
49392;SDS011;35268;42.642;23.308;2023-06-04T03:09:11;8.13;;;3.63;;
49392;SDS011;35268;42.642;23.308;2023-06-04T03:11:37;3.85;;;2.50;;
49392;SDS011;35268;42.642;23.308;2023-06-04T03:14:03;4.82;;;2.95;;
49392;SDS011;35268;42.642;23.308;2023-06-04T03:16:28;6.82;;;2.42;;
49392;SDS011;35268;42.642;23.308;2023-06-04T03:18:53;4.65;;;2.85;;
49392;SDS011;35268;42.642;23.308;2023-06-04T03:21:19;4.63;;;2.72;;
49392;SDS011;35268;42.642;23.308;2023-06-04T03:23:44;4.50;;;2.25;;
49392;SDS011;35268;42.642;23.308;2023-06-04T03:26:10;5.90;;;2.58;;
49392;SDS011;35268;42.642;23.308;2023-06-04T03:28:37;4.75;;;2.65;;
49392;SDS011;35268;42.642;23.308;2023-06-04T03:31:03;5.55;;;2.67;;
49392;SDS011;35268;42.642;23.308;2023-06-04T03:33:28;5.97;;;2.05;;
49392;SDS011;35268;42.642;23.308;2023-06-04T03:35:54;7.32;;;2.70;;
49392;SDS011;35268;42.642;23.308;2023-06-04T03:38:23;4.70;;;3.17;;
49392;SDS011;35268;42.642;23.308;2023-06-04T03:40:49;4.15;;;2.33;;
49392;SDS011;35268;42.642;23.308;2023-06-04T03:43:17;4.75;;;2.80;;
49392;SDS011;35268;42.642;23.308;2023-06-04T03:45:43;5.93;;;2.97;;
49392;SDS011;35268;42.642;23.308;2023-06-04T03:48:09;5.95;;;2.60;;
49392;SDS011;35268;42.642;23.308;2023-06-04T03:50:34;8.68;;;3.20;;
49392;SDS011;35268;42.642;23.308;2023-06-04T03:53:00;6.78;;;2.30;;
49392;SDS011;35268;42.642;23.308;2023-06-04T03:55:25;4.18;;;2.20;;
49392;SDS011;35268;42.642;23.308;2023-06-04T03:57:51;4.00;;;2.35;;
49392;SDS011;35268;42.642;23.308;2023-06-04T04:00:17;11.30;;;2.72;;
49392;SDS011;35268;42.642;23.308;2023-06-04T04:02:43;5.72;;;2.42;;
49392;SDS011;35268;42.642;23.308;2023-06-04T04:05:08;3.80;;;2.33;;
49392;SDS011;35268;42.642;23.308;2023-06-04T04:07:36;10.23;;;3.15;;
49392;SDS011;35268;42.642;23.308;2023-06-04T04:10:01;4.00;;;2.72;;
49392;SDS011;35268;42.642;23.308;2023-06-04T04:12:27;4.28;;;2.22;;
49392;SDS011;35268;42.642;23.308;2023-06-04T04:14:52;5.75;;;2.55;;
49392;SDS011;35268;42.642;23.308;2023-06-04T04:17:18;4.90;;;2.50;;
49392;SDS011;35268;42.642;23.308;2023-06-04T04:19:43;6.03;;;3.00;;
49392;SDS011;35268;42.642;23.308;2023-06-04T04:22:12;5.15;;;2.63;;
49392;SDS011;35268;42.642;23.308;2023-06-04T04:24:38;3.75;;;2.75;;
49392;SDS011;35268;42.642;23.308;2023-06-04T04:27:04;6.93;;;2.90;;
49392;SDS011;35268;42.642;23.308;2023-06-04T04:29:30;4.72;;;2.53;;
49392;SDS011;35268;42.642;23.308;2023-06-04T04:31:59;10.30;;;3.45;;
49392;SDS011;35268;42.642;23.308;2023-06-04T04:34:26;5.97;;;3.28;;
49392;SDS011;35268;42.642;23.308;2023-06-04T04:36:52;8.43;;;4.35;;
49392;SDS011;35268;42.642;23.308;2023-06-04T04:39:23;8.27;;;2.63;;
49392;SDS011;35268;42.642;23.308;2023-06-04T04:41:50;7.93;;;3.03;;
49392;SDS011;35268;42.642;23.308;2023-06-04T04:44:16;9.13;;;3.13;;
49392;SDS011;35268;42.642;23.308;2023-06-04T04:46:41;5.63;;;3.60;;
49392;SDS011;35268;42.642;23.308;2023-06-04T04:49:07;8.63;;;3.38;;
49392;SDS011;35268;42.642;23.308;2023-06-04T04:51:32;9.10;;;3.20;;
49392;SDS011;35268;42.642;23.308;2023-06-04T04:53:58;6.55;;;3.42;;
49392;SDS011;35268;42.642;23.308;2023-06-04T04:56:27;7.40;;;3.25;;
49392;SDS011;35268;42.642;23.308;2023-06-04T04:58:53;6.72;;;3.80;;
49392;SDS011;35268;42.642;23.308;2023-06-04T05:01:19;6.30;;;3.35;;
49392;SDS011;35268;42.642;23.308;2023-06-04T05:03:45;5.70;;;3.00;;
49392;SDS011;35268;42.642;23.308;2023-06-04T05:06:11;10.85;;;3.25;;
49392;SDS011;35268;42.642;23.308;2023-06-04T05:08:36;6.25;;;3.63;;
49392;SDS011;35268;42.642;23.308;2023-06-04T05:11:02;7.97;;;2.95;;
49392;SDS011;35268;42.642;23.308;2023-06-04T05:13:27;6.93;;;3.65;;
49392;SDS011;35268;42.642;23.308;2023-06-04T05:15:53;9.48;;;3.45;;
49392;SDS011;35268;42.642;23.308;2023-06-04T05:18:19;11.52;;;4.25;;
49392;SDS011;35268;42.642;23.308;2023-06-04T05:20:53;5.88;;;3.55;;
49392;SDS011;35268;42.642;23.308;2023-06-04T05:23:19;9.18;;;3.90;;
49392;SDS011;35268;42.642;23.308;2023-06-04T05:28:50;11.23;;;4.05;;
49392;SDS011;35268;42.642;23.308;2023-06-04T05:31:16;7.70;;;4.50;;
49392;SDS011;35268;42.642;23.308;2023-06-04T05:33:43;9.93;;;4.25;;
49392;SDS011;35268;42.642;23.308;2023-06-04T05:36:09;10.55;;;4.55;;
49392;SDS011;35268;42.642;23.308;2023-06-04T05:38:34;14.10;;;4.53;;
49392;SDS011;35268;42.642;23.308;2023-06-04T05:41:01;5.43;;;3.78;;
49392;SDS011;35268;42.642;23.308;2023-06-04T05:43:26;12.43;;;4.13;;
49392;SDS011;35268;42.642;23.308;2023-06-04T05:45:52;10.32;;;3.67;;
49392;SDS011;35268;42.642;23.308;2023-06-04T05:48:17;8.02;;;4.70;;
49392;SDS011;35268;42.642;23.308;2023-06-04T05:50:43;6.25;;;4.20;;
49392;SDS011;35268;42.642;23.308;2023-06-04T05:53:09;16.17;;;4.57;;
49392;SDS011;35268;42.642;23.308;2023-06-04T05:55:35;7.43;;;5.03;;
49392;SDS011;35268;42.642;23.308;2023-06-04T05:58:01;9.00;;;5.00;;
49392;SDS011;35268;42.642;23.308;2023-06-04T06:00:27;10.52;;;4.25;;
49392;SDS011;35268;42.642;23.308;2023-06-04T06:02:52;7.65;;;4.80;;
49392;SDS011;35268;42.642;23.308;2023-06-04T06:05:18;10.50;;;4.85;;
49392;SDS011;35268;42.642;23.308;2023-06-04T06:07:45;8.32;;;5.13;;
49392;SDS011;35268;42.642;23.308;2023-06-04T06:10:10;8.63;;;4.43;;
49392;SDS011;35268;42.642;23.308;2023-06-04T06:12:36;10.30;;;5.00;;
49392;SDS011;35268;42.642;23.308;2023-06-04T06:15:02;10.98;;;4.93;;
49392;SDS011;35268;42.642;23.308;2023-06-04T06:17:28;8.68;;;4.85;;
49392;SDS011;35268;42.642;23.308;2023-06-04T06:19:54;9.50;;;5.07;;
49392;SDS011;35268;42.642;23.308;2023-06-04T06:22:20;17.38;;;5.85;;
49392;SDS011;35268;42.642;23.308;2023-06-04T06:24:45;10.48;;;4.95;;
49392;SDS011;35268;42.642;23.308;2023-06-04T06:27:13;9.25;;;5.18;;
49392;SDS011;35268;42.642;23.308;2023-06-04T06:29:40;13.07;;;5.93;;
49392;SDS011;35268;42.642;23.308;2023-06-04T06:32:05;15.80;;;5.47;;
49392;SDS011;35268;42.642;23.308;2023-06-04T06:34:31;7.72;;;4.75;;
49392;SDS011;35268;42.642;23.308;2023-06-04T06:36:56;11.77;;;5.43;;
49392;SDS011;35268;42.642;23.308;2023-06-04T06:39:22;9.23;;;4.72;;
49392;SDS011;35268;42.642;23.308;2023-06-04T06:41:48;12.80;;;4.95;;
49392;SDS011;35268;42.642;23.308;2023-06-04T06:44:13;10.27;;;4.95;;
49392;SDS011;35268;42.642;23.308;2023-06-04T06:46:38;11.15;;;5.47;;
49392;SDS011;35268;42.642;23.308;2023-06-04T06:49:04;9.77;;;4.43;;
49392;SDS011;35268;42.642;23.308;2023-06-04T06:51:33;8.95;;;4.85;;
49392;SDS011;35268;42.642;23.308;2023-06-04T06:53:58;7.82;;;4.80;;
49392;SDS011;35268;42.642;23.308;2023-06-04T06:56:24;14.10;;;4.78;;
49392;SDS011;35268;42.642;23.308;2023-06-04T06:58:50;11.70;;;5.25;;
49392;SDS011;35268;42.642;23.308;2023-06-04T07:01:16;9.52;;;4.30;;
49392;SDS011;35268;42.642;23.308;2023-06-04T07:03:41;11.77;;;4.07;;
49392;SDS011;35268;42.642;23.308;2023-06-04T07:06:07;14.43;;;4.93;;
49392;SDS011;35268;42.642;23.308;2023-06-04T07:08:33;9.90;;;4.35;;
49392;SDS011;35268;42.642;23.308;2023-06-04T07:10:59;8.77;;;4.10;;
49392;SDS011;35268;42.642;23.308;2023-06-04T07:13:26;5.70;;;4.13;;
49392;SDS011;35268;42.642;23.308;2023-06-04T07:15:52;10.85;;;4.47;;
49392;SDS011;35268;42.642;23.308;2023-06-04T07:18:18;6.15;;;4.25;;
49392;SDS011;35268;42.642;23.308;2023-06-04T07:20:43;9.73;;;3.78;;
49392;SDS011;35268;42.642;23.308;2023-06-04T07:23:09;8.77;;;4.10;;
49392;SDS011;35268;42.642;23.308;2023-06-04T07:25:35;7.95;;;4.32;;
49392;SDS011;35268;42.642;23.308;2023-06-04T07:28:00;8.18;;;5.07;;
49392;SDS011;35268;42.642;23.308;2023-06-04T07:30:29;7.97;;;4.88;;
49392;SDS011;35268;42.642;23.308;2023-06-04T07:32:55;6.25;;;4.07;;
49392;SDS011;35268;42.642;23.308;2023-06-04T07:35:21;9.10;;;4.35;;
49392;SDS011;35268;42.642;23.308;2023-06-04T07:37:48;8.45;;;4.90;;
49392;SDS011;35268;42.642;23.308;2023-06-04T07:40:15;13.20;;;4.90;;
49392;SDS011;35268;42.642;23.308;2023-06-04T07:42:41;10.02;;;4.85;;
49392;SDS011;35268;42.642;23.308;2023-06-04T07:45:07;12.52;;;5.10;;
49392;SDS011;35268;42.642;23.308;2023-06-04T07:47:35;15.63;;;5.82;;
49392;SDS011;35268;42.642;23.308;2023-06-04T07:50:01;11.85;;;5.55;;
49392;SDS011;35268;42.642;23.308;2023-06-04T07:52:27;15.82;;;6.43;;
49392;SDS011;35268;42.642;23.308;2023-06-04T07:54:53;11.48;;;5.88;;
49392;SDS011;35268;42.642;23.308;2023-06-04T07:57:21;18.90;;;5.72;;
49392;SDS011;35268;42.642;23.308;2023-06-04T08:00:39;16.40;;;5.60;;
49392;SDS011;35268;42.642;23.308;2023-06-04T08:03:05;13.30;;;6.00;;
49392;SDS011;35268;42.642;23.308;2023-06-04T08:05:30;17.05;;;6.15;;
49392;SDS011;35268;42.642;23.308;2023-06-04T08:07:56;16.05;;;5.90;;
49392;SDS011;35268;42.642;23.308;2023-06-04T08:10:21;11.00;;;5.88;;
49392;SDS011;35268;42.642;23.308;2023-06-04T08:12:47;11.88;;;6.95;;
49392;SDS011;35268;42.642;23.308;2023-06-04T08:15:12;11.48;;;6.80;;
49392;SDS011;35268;42.642;23.308;2023-06-04T08:17:37;18.98;;;7.15;;
49392;SDS011;35268;42.642;23.308;2023-06-04T08:20:03;11.68;;;7.57;;
49392;SDS011;35268;42.642;23.308;2023-06-04T08:22:31;13.07;;;6.90;;
49392;SDS011;35268;42.642;23.308;2023-06-04T08:24:57;13.27;;;8.10;;
49392;SDS011;35268;42.642;23.308;2023-06-04T08:27:22;25.63;;;7.32;;
49392;SDS011;35268;42.642;23.308;2023-06-04T08:29:48;13.90;;;7.93;;
49392;SDS011;35268;42.642;23.308;2023-06-04T08:32:13;12.68;;;8.15;;
49392;SDS011;35268;42.642;23.308;2023-06-04T08:34:41;15.23;;;7.93;;
49392;SDS011;35268;42.642;23.308;2023-06-04T08:37:06;13.15;;;7.63;;
49392;SDS011;35268;42.642;23.308;2023-06-04T08:39:32;21.10;;;8.73;;
49392;SDS011;35268;42.642;23.308;2023-06-04T08:42:01;13.38;;;8.07;;
49392;SDS011;35268;42.642;23.308;2023-06-04T08:44:32;22.08;;;8.98;;
49392;SDS011;35268;42.642;23.308;2023-06-04T08:47:01;13.02;;;7.95;;
49392;SDS011;35268;42.642;23.308;2023-06-04T08:49:30;11.52;;;7.47;;
49392;SDS011;35268;42.642;23.308;2023-06-04T08:52:00;16.10;;;7.25;;
49392;SDS011;35268;42.642;23.308;2023-06-04T08:54:26;17.35;;;6.88;;
49392;SDS011;35268;42.642;23.308;2023-06-04T08:56:51;12.52;;;6.97;;
49392;SDS011;35268;42.642;23.308;2023-06-04T08:59:17;18.23;;;8.68;;
49392;SDS011;35268;42.642;23.308;2023-06-04T09:01:43;13.02;;;7.32;;
49392;SDS011;35268;42.642;23.308;2023-06-04T09:04:10;14.05;;;6.60;;
49392;SDS011;35268;42.642;23.308;2023-06-04T09:06:36;13.98;;;5.82;;
49392;SDS011;35268;42.642;23.308;2023-06-04T09:09:04;11.70;;;6.57;;
49392;SDS011;35268;42.642;23.308;2023-06-04T09:11:38;12.73;;;6.47;;
49392;SDS011;35268;42.642;23.308;2023-06-04T09:14:09;17.15;;;7.03;;
49392;SDS011;35268;42.642;23.308;2023-06-04T09:16:45;16.85;;;5.93;;
49392;SDS011;35268;42.642;23.308;2023-06-04T09:19:16;14.75;;;6.50;;
49392;SDS011;35268;42.642;23.308;2023-06-04T09:21:52;12.27;;;6.05;;
49392;SDS011;35268;42.642;23.308;2023-06-04T09:24:24;11.48;;;6.85;;
49392;SDS011;35268;42.642;23.308;2023-06-04T09:27:08;11.68;;;7.00;;
49392;SDS011;35268;42.642;23.308;2023-06-04T09:29:38;18.17;;;7.43;;
49392;SDS011;35268;42.642;23.308;2023-06-04T09:32:04;11.25;;;6.70;;
49392;SDS011;35268;42.642;23.308;2023-06-04T09:34:30;13.02;;;5.70;;
49392;SDS011;35268;42.642;23.308;2023-06-04T09:36:56;11.18;;;5.97;;
49392;SDS011;35268;42.642;23.308;2023-06-04T09:39:22;9.63;;;6.13;;
49392;SDS011;35268;42.642;23.308;2023-06-04T09:41:58;17.40;;;6.45;;
49392;SDS011;35268;42.642;23.308;2023-06-04T09:44:25;12.00;;;6.13;;
49392;SDS011;35268;42.642;23.308;2023-06-04T09:46:54;9.88;;;5.82;;
49392;SDS011;35268;42.642;23.308;2023-06-04T09:49:20;13.38;;;6.32;;
49392;SDS011;35268;42.642;23.308;2023-06-04T09:51:46;14.95;;;6.43;;
49392;SDS011;35268;42.642;23.308;2023-06-04T09:54:13;10.40;;;6.53;;
49392;SDS011;35268;42.642;23.308;2023-06-04T09:56:42;11.15;;;6.47;;
49392;SDS011;35268;42.642;23.308;2023-06-04T09:59:10;13.32;;;6.63;;
49392;SDS011;35268;42.642;23.308;2023-06-04T10:01:38;14.73;;;7.40;;
49392;SDS011;35268;42.642;23.308;2023-06-04T10:04:07;8.65;;;6.72;;
49392;SDS011;35268;42.642;23.308;2023-06-04T10:06:34;12.82;;;6.88;;
49392;SDS011;35268;42.642;23.308;2023-06-04T10:09:04;21.15;;;7.05;;
49392;SDS011;35268;42.642;23.308;2023-06-04T10:11:37;11.80;;;7.75;;
49392;SDS011;35268;42.642;23.308;2023-06-04T10:14:10;11.25;;;6.97;;
49392;SDS011;35268;42.642;23.308;2023-06-04T10:16:51;14.88;;;7.30;;
49392;SDS011;35268;42.642;23.308;2023-06-04T10:19:19;13.63;;;8.20;;
49392;SDS011;35268;42.642;23.308;2023-06-04T10:21:45;15.60;;;7.90;;
49392;SDS011;35268;42.642;23.308;2023-06-04T10:24:11;18.77;;;7.15;;
49392;SDS011;35268;42.642;23.308;2023-06-04T10:26:37;14.25;;;7.00;;
49392;SDS011;35268;42.642;23.308;2023-06-04T10:29:05;11.60;;;6.75;;
49392;SDS011;35268;42.642;23.308;2023-06-04T10:31:31;15.05;;;7.13;;
49392;SDS011;35268;42.642;23.308;2023-06-04T10:33:57;17.00;;;8.45;;
49392;SDS011;35268;42.642;23.308;2023-06-04T10:36:24;27.02;;;7.65;;
49392;SDS011;35268;42.642;23.308;2023-06-04T10:38:53;12.25;;;6.97;;
49392;SDS011;35268;42.642;23.308;2023-06-04T10:41:20;11.23;;;7.22;;
49392;SDS011;35268;42.642;23.308;2023-06-04T10:43:50;10.80;;;7.15;;
49392;SDS011;35268;42.642;23.308;2023-06-04T10:46:17;11.15;;;5.78;;
49392;SDS011;35268;42.642;23.308;2023-06-04T10:51:14;10.25;;;5.75;;
49392;SDS011;35268;42.642;23.308;2023-06-04T10:53:40;15.02;;;6.88;;
49392;SDS011;35268;42.642;23.308;2023-06-04T10:56:06;12.45;;;7.80;;
49392;SDS011;35268;42.642;23.308;2023-06-04T10:58:35;13.73;;;7.35;;
49392;SDS011;35268;42.642;23.308;2023-06-04T11:01:03;17.10;;;6.88;;
49392;SDS011;35268;42.642;23.308;2023-06-04T11:03:35;15.80;;;8.73;;
49392;SDS011;35268;42.642;23.308;2023-06-04T11:06:02;13.40;;;8.07;;
49392;SDS011;35268;42.642;23.308;2023-06-04T11:08:28;11.38;;;6.70;;
49392;SDS011;35268;42.642;23.308;2023-06-04T11:10:55;17.35;;;9.57;;
49392;SDS011;35268;42.642;23.308;2023-06-04T11:13:24;16.02;;;7.63;;
49392;SDS011;35268;42.642;23.308;2023-06-04T11:15:50;12.15;;;5.70;;
49392;SDS011;35268;42.642;23.308;2023-06-04T11:18:17;8.65;;;5.25;;
49392;SDS011;35268;42.642;23.308;2023-06-04T11:21:03;12.57;;;5.97;;
49392;SDS011;35268;42.642;23.308;2023-06-04T11:23:29;13.02;;;8.40;;
49392;SDS011;35268;42.642;23.308;2023-06-04T11:25:58;14.48;;;6.72;;
49392;SDS011;35268;42.642;23.308;2023-06-04T11:28:30;12.23;;;6.97;;
49392;SDS011;35268;42.642;23.308;2023-06-04T11:30:56;10.68;;;6.53;;
49392;SDS011;35268;42.642;23.308;2023-06-04T11:33:22;7.15;;;5.38;;
49392;SDS011;35268;42.642;23.308;2023-06-04T11:35:48;11.60;;;5.63;;
49392;SDS011;35268;42.642;23.308;2023-06-04T11:38:13;12.85;;;6.30;;
49392;SDS011;35268;42.642;23.308;2023-06-04T11:40:38;8.82;;;5.63;;
49392;SDS011;35268;42.642;23.308;2023-06-04T11:43:04;12.45;;;6.57;;
49392;SDS011;35268;42.642;23.308;2023-06-04T11:45:30;13.15;;;5.28;;
49392;SDS011;35268;42.642;23.308;2023-06-04T11:47:57;7.10;;;4.88;;
49392;SDS011;35268;42.642;23.308;2023-06-04T11:50:23;7.40;;;5.30;;
49392;SDS011;35268;42.642;23.308;2023-06-04T11:52:52;8.30;;;5.35;;
49392;SDS011;35268;42.642;23.308;2023-06-04T11:55:18;10.55;;;5.70;;
49392;SDS011;35268;42.642;23.308;2023-06-04T11:57:48;10.82;;;5.95;;
49392;SDS011;35268;42.642;23.308;2023-06-04T12:00:15;8.80;;;5.75;;
49392;SDS011;35268;42.642;23.308;2023-06-04T12:02:55;12.05;;;7.07;;
49392;SDS011;35268;42.642;23.308;2023-06-04T12:05:22;9.05;;;6.70;;
49392;SDS011;35268;42.642;23.308;2023-06-04T12:07:49;15.18;;;6.72;;
49392;SDS011;35268;42.642;23.308;2023-06-04T12:10:19;9.82;;;6.20;;
49392;SDS011;35268;42.642;23.308;2023-06-04T12:12:45;9.80;;;6.50;;
49392;SDS011;35268;42.642;23.308;2023-06-04T12:15:12;10.23;;;6.43;;
49392;SDS011;35268;42.642;23.308;2023-06-04T12:17:53;13.20;;;7.03;;
49392;SDS011;35268;42.642;23.308;2023-06-04T12:20:31;10.85;;;6.97;;
49392;SDS011;35268;42.642;23.308;2023-06-04T12:22:58;8.93;;;7.03;;
49392;SDS011;35268;42.642;23.308;2023-06-04T12:25:24;11.25;;;6.97;;
49392;SDS011;35268;42.642;23.308;2023-06-04T12:27:51;11.85;;;6.88;;
49392;SDS011;35268;42.642;23.308;2023-06-04T12:30:17;12.63;;;6.78;;
49392;SDS011;35268;42.642;23.308;2023-06-04T12:32:43;9.63;;;6.47;;
49392;SDS011;35268;42.642;23.308;2023-06-04T12:35:10;13.13;;;6.07;;
49392;SDS011;35268;42.642;23.308;2023-06-04T12:37:36;11.52;;;6.88;;
49392;SDS011;35268;42.642;23.308;2023-06-04T12:40:02;12.90;;;7.00;;
49392;SDS011;35268;42.642;23.308;2023-06-04T12:42:29;13.43;;;8.25;;
49392;SDS011;35268;42.642;23.308;2023-06-04T12:44:55;12.43;;;7.43;;
49392;SDS011;35268;42.642;23.308;2023-06-04T12:47:20;11.48;;;7.28;;
49392;SDS011;35268;42.642;23.308;2023-06-04T12:49:46;16.60;;;7.47;;
49392;SDS011;35268;42.642;23.308;2023-06-04T12:52:12;10.25;;;7.72;;
49392;SDS011;35268;42.642;23.308;2023-06-04T12:54:39;10.70;;;7.88;;
49392;SDS011;35268;42.642;23.308;2023-06-04T12:57:05;12.02;;;7.68;;
49392;SDS011;35268;42.642;23.308;2023-06-04T12:59:30;13.20;;;8.48;;
49392;SDS011;35268;42.642;23.308;2023-06-04T13:01:56;11.80;;;8.35;;
49392;SDS011;35268;42.642;23.308;2023-06-04T13:04:22;12.25;;;8.80;;
49392;SDS011;35268;42.642;23.308;2023-06-04T13:06:49;12.25;;;8.02;;
49392;SDS011;35268;42.642;23.308;2023-06-04T13:09:17;10.70;;;8.15;;
49392;SDS011;35268;42.642;23.308;2023-06-04T13:11:44;11.73;;;8.25;;
49392;SDS011;35268;42.642;23.308;2023-06-04T13:14:10;11.18;;;8.18;;
49392;SDS011;35268;42.642;23.308;2023-06-04T13:16:37;13.07;;;7.65;;
49392;SDS011;35268;42.642;23.308;2023-06-04T13:19:03;10.85;;;7.90;;
49392;SDS011;35268;42.642;23.308;2023-06-04T13:21:29;17.55;;;8.32;;
49392;SDS011;35268;42.642;23.308;2023-06-04T13:23:55;12.48;;;8.35;;
49392;SDS011;35268;42.642;23.308;2023-06-04T13:26:21;13.57;;;8.18;;
49392;SDS011;35268;42.642;23.308;2023-06-04T13:28:47;10.48;;;7.60;;
49392;SDS011;35268;42.642;23.308;2023-06-04T13:31:13;12.55;;;7.90;;
49392;SDS011;35268;42.642;23.308;2023-06-04T13:33:38;13.35;;;8.02;;
49392;SDS011;35268;42.642;23.308;2023-06-04T13:36:04;12.00;;;6.30;;
49392;SDS011;35268;42.642;23.308;2023-06-04T13:38:31;9.10;;;5.93;;
49392;SDS011;35268;42.642;23.308;2023-06-04T13:40:56;8.45;;;5.63;;
49392;SDS011;35268;42.642;23.308;2023-06-04T13:43:22;11.10;;;5.72;;
49392;SDS011;35268;42.642;23.308;2023-06-04T13:45:47;8.77;;;4.82;;
49392;SDS011;35268;42.642;23.308;2023-06-04T13:48:13;8.68;;;5.68;;
49392;SDS011;35268;42.642;23.308;2023-06-04T13:50:38;7.95;;;5.38;;
49392;SDS011;35268;42.642;23.308;2023-06-04T13:53:04;8.73;;;5.22;;
49392;SDS011;35268;42.642;23.308;2023-06-04T13:55:30;14.18;;;5.22;;
49392;SDS011;35268;42.642;23.308;2023-06-04T13:57:55;11.57;;;5.40;;
49392;SDS011;35268;42.642;23.308;2023-06-04T14:00:21;8.07;;;5.47;;
49392;SDS011;35268;42.642;23.308;2023-06-04T14:02:47;11.80;;;6.05;;
49392;SDS011;35268;42.642;23.308;2023-06-04T14:05:13;8.40;;;5.53;;
49392;SDS011;35268;42.642;23.308;2023-06-04T14:07:41;8.57;;;5.63;;
49392;SDS011;35268;42.642;23.308;2023-06-04T14:10:07;7.20;;;4.65;;
49392;SDS011;35268;42.642;23.308;2023-06-04T14:12:32;9.10;;;4.65;;
49392;SDS011;35268;42.642;23.308;2023-06-04T14:14:58;8.15;;;6.32;;
49392;SDS011;35268;42.642;23.308;2023-06-04T14:17:23;6.63;;;4.78;;
49392;SDS011;35268;42.642;23.308;2023-06-04T14:19:49;11.43;;;5.65;;
49392;SDS011;35268;42.642;23.308;2023-06-04T14:22:14;11.88;;;6.55;;
49392;SDS011;35268;42.642;23.308;2023-06-04T14:24:40;18.58;;;6.28;;
49392;SDS011;35268;42.642;23.308;2023-06-04T14:27:07;11.95;;;5.43;;
49392;SDS011;35268;42.642;23.308;2023-06-04T14:29:32;9.50;;;5.70;;